Time;durP1;ratioP1;P1;durP2;ratioP2;P2;SDS_P1;SDS_P2;PMS_P1;PMS_P2;Temp;Humidity;BMP_temperature;BMP_pressure;BME280_temperature;BME280_humidity;BME280_pressure;Samples;Min_cycle;Max_cycle;Signal;HPM_P1;HPM_P2
2022/08/19 00:04:52;;;;;;;9.23;5.90;;;;;;;;;;10419671;28;20403;-80
2022/08/19 00:09:53;;;;;;;9.50;6.70;;;;;;;;;;10408215;28;20020;-76
2022/08/19 00:14:54;;;;;;;7.28;5.57;;;;;;;;;;10409811;28;20104;-75
2022/08/19 00:19:54;;;;;;;8.68;6.35;;;;;;;;;;10416923;28;20025;-73
2022/08/19 00:24:54;;;;;;;8.07;6.07;;;;;;;;;;10408798;28;20082;-77
2022/08/19 00:29:54;;;;;;;10.10;5.82;;;;;;;;;;10409063;28;20021;-78
2022/08/19 00:34:55;;;;;;;7.97;6.22;;;;;;;;;;10407920;28;20017;-72
2022/08/19 00:39:55;;;;;;;8.50;6.33;;;;;;;;;;10417854;28;20432;-72
2022/08/19 00:44:55;;;;;;;6.50;5.65;;;;;;;;;;10406388;28;20554;-76
2022/08/19 00:49:57;;;;;;;8.38;6.15;;;;;;;;;;10406833;28;20052;-78
2022/08/19 00:54:58;;;;;;;7.35;6.32;;;;;;;;;;10419531;28;20168;-77
2022/08/19 01:00:00;;;;;;;7.78;6.40;;;;;;;;;;10417990;28;20021;-79
2022/08/19 01:05:02;;;;;;;9.88;6.32;;;;;;;;;;10389900;28;20026;-77
2022/08/19 01:10:03;;;;;;;7.40;5.80;;;;;;;;;;10406024;28;20025;-72
2022/08/19 01:15:04;;;;;;;8.40;6.30;;;;;;;;;;10407019;28;20029;-72
2022/08/19 01:20:07;;;;;;;6.93;5.82;;;;;;;;;;10407690;28;20104;-72
2022/08/19 01:25:07;;;;;;;8.25;5.55;;;;;;;;;;10405459;28;20017;-76
2022/08/19 01:30:08;;;;;;;6.93;6.03;;;;;;;;;;10409085;28;20478;-81
2022/08/19 01:35:09;;;;;;;8.02;5.88;;;;;;;;;;10416609;28;20103;-77
2022/08/19 01:40:10;;;;;;;8.25;6.32;;;;;;;;;;10405125;28;20403;-72
2022/08/19 01:45:10;;;;;;;7.75;5.78;;;;;;;;;;10404451;28;20034;-73
2022/08/19 01:50:11;;;;;;;6.85;6.15;;;;;;;;;;10406598;28;20057;-77
2022/08/19 01:55:13;;;;;;;8.23;5.63;;;;;;;;;;10405889;28;20037;-73
2022/08/19 02:00:15;;;;;;;9.77;6.43;;;;;;;;;;10405307;28;20033;-78
2022/08/19 02:05:17;;;;;;;8.85;6.43;;;;;;;;;;10406032;28;20025;-72
2022/08/19 02:10:20;;;;;;;8.43;6.75;;;;;;;;;;10403933;28;20029;-74
2022/08/19 02:15:21;;;;;;;9.25;6.20;;;;;;;;;;10402645;28;20029;-77
2022/08/19 02:20:22;;;;;;;9.50;7.00;;;;;;;;;;10404228;28;20489;-77
2022/08/19 02:25:22;;;;;;;9.57;6.72;;;;;;;;;;10406232;28;20415;-79
2022/08/19 02:30:24;;;;;;;8.63;6.90;;;;;;;;;;10405169;28;20116;-81
2022/08/19 02:35:25;;;;;;;8.50;6.82;;;;;;;;;;10403823;28;20025;-76
2022/08/19 02:40:26;;;;;;;9.32;7.25;;;;;;;;;;10402613;28;20079;-78
2022/08/19 02:45:26;;;;;;;15.73;7.40;;;;;;;;;;10403617;28;20022;-75
2022/08/19 02:50:26;;;;;;;10.35;7.28;;;;;;;;;;10405174;28;20061;-77
2022/08/19 02:55:27;;;;;;;11.30;8.07;;;;;;;;;;10404041;28;20681;-82
2022/08/19 03:00:27;;;;;;;9.25;6.70;;;;;;;;;;10402433;28;20494;-76
2022/08/19 03:05:27;;;;;;;9.73;7.00;;;;;;;;;;10405276;28;20095;-74
2022/08/19 03:10:27;;;;;;;11.30;6.30;;;;;;;;;;10404010;28;20021;-76
2022/08/19 03:15:28;;;;;;;13.60;8.20;;;;;;;;;;10403927;28;20501;-77
2022/08/19 03:20:28;;;;;;;11.63;7.70;;;;;;;;;;10402941;28;20029;-77
2022/08/19 03:25:28;;;;;;;8.10;6.67;;;;;;;;;;10411582;28;20017;-72
2022/08/19 03:30:29;;;;;;;12.75;7.22;;;;;;;;;;10417178;28;20276;-72
2022/08/19 03:35:29;;;;;;;10.32;6.10;;;;;;;;;;10408381;28;20029;-75
2022/08/19 03:40:30;;;;;;;12.85;7.15;;;;;;;;;;10411287;28;20029;-75
2022/08/19 03:45:30;;;;;;;10.57;7.82;;;;;;;;;;10410628;28;20022;-76
2022/08/19 03:50:30;;;;;;;12.15;7.57;;;;;;;;;;10407994;28;20046;-78
2022/08/19 03:55:31;;;;;;;16.40;6.30;;;;;;;;;;10411515;28;20029;-77
2022/08/19 04:00:33;;;;;;;11.23;6.88;;;;;;;;;;10411078;28;20415;-77
2022/08/19 04:05:33;;;;;;;9.27;6.80;;;;;;;;;;10406067;28;20030;-73
2022/08/19 04:10:37;;;;;;;10.60;6.97;;;;;;;;;;10410139;28;20024;-74
2022/08/19 04:15:41;;;;;;;9.05;6.72;;;;;;;;;;10409207;28;20442;-79
2022/08/19 04:20:46;;;;;;;12.18;6.82;;;;;;;;;;10407339;28;20108;-73
2022/08/19 04:25:46;;;;;;;12.88;6.82;;;;;;;;;;10389362;28;20033;-73
2022/08/19 04:30:48;;;;;;;13.40;7.13;;;;;;;;;;10406621;28;20509;-72
2022/08/19 04:35:49;;;;;;;11.50;6.88;;;;;;;;;;10388936;28;20040;-78
2022/08/19 04:46:10;;;;;;;9.65;7.00;;;;;;;;;;10410890;28;20029;-73
2022/08/19 04:51:13;;;;;;;10.00;7.38;;;;;;;;;;10407170;28;20111;-73
2022/08/19 04:56:14;;;;;;;11.35;7.38;;;;;;;;;;10407981;28;20561;-76
2022/08/19 05:01:17;;;;;;;12.05;8.25;;;;;;;;;;10407213;28;20028;-73
2022/08/19 05:06:19;;;;;;;12.05;7.78;;;;;;;;;;10407798;28;20493;-74
2022/08/19 05:11:21;;;;;;;11.50;6.80;;;;;;;;;;10400023;28;20075;-75
2022/08/19 05:16:22;;;;;;;19.98;8.60;;;;;;;;;;10405773;28;20079;-72
2022/08/19 05:26:42;;;;;;;9.60;7.05;;;;;;;;;;10404902;28;20022;-73
2022/08/19 05:31:43;;;;;;;12.23;6.78;;;;;;;;;;10406032;28;20025;-73
2022/08/19 05:36:44;;;;;;;14.18;7.10;;;;;;;;;;10405288;28;20502;-72
2022/08/19 05:41:49;;;;;;;14.77;7.43;;;;;;;;;;10384678;28;20021;-79
2022/08/19 05:46:52;;;;;;;11.15;6.40;;;;;;;;;;10404192;28;20378;-78
2022/08/19 05:51:54;;;;;;;11.75;6.43;;;;;;;;;;10403554;28;20118;-75
2022/08/19 05:56:55;;;;;;;8.95;6.18;;;;;;;;;;10402465;28;20044;-79
2022/08/19 06:01:56;;;;;;;13.45;6.57;;;;;;;;;;10395918;28;20105;-77
2022/08/19 06:06:56;;;;;;;9.55;5.65;;;;;;;;;;10403964;28;20389;-76
2022/08/19 06:11:59;;;;;;;12.77;6.67;;;;;;;;;;10412666;28;20017;-75
2022/08/19 06:17:01;;;;;;;18.42;6.03;;;;;;;;;;10410515;28;20022;-75
2022/08/19 06:22:01;;;;;;;10.38;4.88;;;;;;;;;;10405467;28;20013;-81
2022/08/19 06:27:02;;;;;;;5.55;4.25;;;;;;;;;;10403655;28;20018;-73
2022/08/19 06:32:03;;;;;;;10.13;4.13;;;;;;;;;;10403990;28;20022;-78
2022/08/19 06:37:05;;;;;;;5.15;4.13;;;;;;;;;;10400871;28;20506;-77
2022/08/19 06:42:08;;;;;;;8.48;4.65;;;;;;;;;;10382468;28;20461;-74
2022/08/19 06:47:09;;;;;;;10.20;4.50;;;;;;;;;;10404086;28;20018;-74
2022/08/19 06:52:14;;;;;;;11.88;4.30;;;;;;;;;;10403727;28;20073;-82
2022/08/19 06:57:14;;;;;;;7.75;4.13;;;;;;;;;;10405925;28;20467;-82
2022/08/19 07:02:15;;;;;;;12.68;4.15;;;;;;;;;;10414929;28;20331;-77
2022/08/19 07:07:15;;;;;;;7.85;3.50;;;;;;;;;;10410071;28;20028;-78
2022/08/19 07:12:15;;;;;;;9.45;3.85;;;;;;;;;;10408515;28;20422;-80
2022/08/19 07:17:16;;;;;;;12.82;4.55;;;;;;;;;;10411695;28;20022;-77
2022/08/19 07:22:17;;;;;;;10.57;3.77;;;;;;;;;;10396475;28;20025;-73
2022/08/19 07:27:18;;;;;;;12.32;3.97;;;;;;;;;;10411469;28;20045;-80
2022/08/19 07:32:18;;;;;;;15.50;4.50;;;;;;;;;;10411513;28;20016;-75
2022/08/19 07:37:19;;;;;;;13.90;3.83;;;;;;;;;;10405357;28;20026;-74
2022/08/19 07:42:20;;;;;;;7.90;3.30;;;;;;;;;;10408455;28;20025;-74
2022/08/19 07:47:21;;;;;;;9.48;3.65;;;;;;;;;;10398436;28;20035;-74
2022/08/19 07:52:22;;;;;;;11.18;3.90;;;;;;;;;;10409402;28;20072;-74
2022/08/19 07:57:22;;;;;;;11.15;3.72;;;;;;;;;;10410399;28;20044;-77
2022/08/19 08:02:22;;;;;;;10.13;3.67;;;;;;;;;;10408456;28;20025;-72
2022/08/19 08:12:41;;;;;;;11.65;4.70;;;;;;;;;;10392859;28;20061;-79
2022/08/19 08:17:42;;;;;;;6.30;3.50;;;;;;;;;;10394944;28;20021;-78
2022/08/19 08:28:02;;;;;;;8.50;3.05;;;;;;;;;;10410411;28;20403;-73
2022/08/19 08:33:03;;;;;;;8.38;3.33;;;;;;;;;;10394259;28;20010;-74
2022/08/19 08:38:04;;;;;;;13.88;2.78;;;;;;;;;;10406323;28;20017;-74
2022/08/19 08:43:23;;;;;;;6.50;2.50;;;;;;;;;;10402562;28;20422;-77
2022/08/19 08:48:26;;;;;;;6.03;3.05;;;;;;;;;;10391473;28;20126;-78
2022/08/19 08:53:26;;;;;;;9.10;3.10;;;;;;;;;;10404697;28;20021;-73
2022/08/19 08:58:45;;;;;;;7.23;2.20;;;;;;;;;;10400449;28;20034;-78
2022/08/19 09:03:45;;;;;;;6.07;2.20;;;;;;;;;;10404729;28;20018;-77
2022/08/19 09:08:50;;;;;;;3.27;2.17;;;;;;;;;;10406699;28;20426;-78
2022/08/19 09:13:50;;;;;;;3.92;1.60;;;;;;;;;;10395739;28;20489;-73
2022/08/19 09:18:55;;;;;;;4.00;2.17;;;;;;;;;;10401093;28;20021;-71
2022/08/19 09:23:55;;;;;;;4.15;2.35;;;;;;;;;;10399709;28;20388;-71
2022/08/19 09:28:57;;;;;;;5.63;1.33;;;;;;;;;;10400726;28;20033;-74
2022/08/19 09:33:59;;;;;;;4.18;1.95;;;;;;;;;;10400255;28;20042;-77
2022/08/19 09:39:00;;;;;;;5.97;1.83;;;;;;;;;;10401257;28;20083;-73
2022/08/19 09:44:00;;;;;;;3.63;1.95;;;;;;;;;;10398683;28;20564;-72
2022/08/19 09:49:00;;;;;;;1.90;1.38;;;;;;;;;;10398224;28;20049;-77
2022/08/19 09:54:02;;;;;;;6.28;1.83;;;;;;;;;;10400203;28;20170;-73
2022/08/19 09:59:03;;;;;;;4.70;1.58;;;;;;;;;;10399178;28;20491;-78
2022/08/19 10:04:09;;;;;;;2.72;1.60;;;;;;;;;;10400877;28;20107;-77
2022/08/19 10:09:10;;;;;;;3.08;1.65;;;;;;;;;;10394009;28;20035;-76
2022/08/19 10:14:11;;;;;;;2.63;1.40;;;;;;;;;;10398147;28;20487;-77
2022/08/19 10:19:11;;;;;;;4.40;1.33;;;;;;;;;;10391943;28;20048;-75
2022/08/19 10:24:11;;;;;;;4.38;1.60;;;;;;;;;;10398226;28;20037;-74
2022/08/19 10:29:11;;;;;;;3.25;1.48;;;;;;;;;;10396601;28;20029;-71
2022/08/19 10:34:12;;;;;;;2.45;1.65;;;;;;;;;;10399850;28;20029;-75
2022/08/19 10:39:12;;;;;;;5.63;2.10;;;;;;;;;;10408043;28;20056;-71
2022/08/19 10:44:13;;;;;;;5.28;1.92;;;;;;;;;;10385469;28;20120;-71
2022/08/19 10:49:13;;;;;;;2.42;1.98;;;;;;;;;;10407736;28;20052;-75
2022/08/19 10:54:13;;;;;;;2.03;1.67;;;;;;;;;;10406969;28;20034;-75
2022/08/19 10:59:15;;;;;;;3.23;1.83;;;;;;;;;;10405052;28;20030;-75
2022/08/19 11:04:17;;;;;;;5.30;1.85;;;;;;;;;;10396553;28;20453;-76
2022/08/19 11:09:19;;;;;;;11.60;2.00;;;;;;;;;;10408281;28;20029;-77
2022/08/19 11:14:20;;;;;;;2.70;1.90;;;;;;;;;;10404609;28;20422;-73
2022/08/19 11:19:23;;;;;;;5.65;2.20;;;;;;;;;;10406283;28;20040;-73
2022/08/19 11:24:25;;;;;;;6.30;2.75;;;;;;;;;;10405987;28;20505;-72
2022/08/19 11:29:27;;;;;;;8.07;2.75;;;;;;;;;;10411474;28;20488;-71
2022/08/19 11:34:28;;;;;;;5.45;2.50;;;;;;;;;;10403680;28;20106;-73
2022/08/19 11:39:29;;;;;;;5.60;3.35;;;;;;;;;;10401625;28;20172;-77
2022/08/19 11:44:30;;;;;;;3.42;2.90;;;;;;;;;;10402806;28;20033;-76
2022/08/19 11:49:30;;;;;;;4.40;2.70;;;;;;;;;;10405029;28;20046;-75
2022/08/19 11:54:30;;;;;;;5.93;3.20;;;;;;;;;;10403845;28;20033;-77
2022/08/19 11:59:30;;;;;;;6.15;3.00;;;;;;;;;;10406081;28;20032;-78
2022/08/19 12:04:31;;;;;;;9.15;3.30;;;;;;;;;;10404011;28;20491;-78
2022/08/19 12:09:32;;;;;;;7.70;3.27;;;;;;;;;;10402395;28;20021;-78
2022/08/19 12:14:32;;;;;;;4.05;2.95;;;;;;;;;;10402750;28;20037;-73
2022/08/19 12:19:33;;;;;;;7.43;3.47;;;;;;;;;;10381072;28;20412;-78
2022/08/19 12:24:34;;;;;;;5.30;3.45;;;;;;;;;;10403602;28;20022;-77
2022/08/19 12:29:34;;;;;;;4.75;3.10;;;;;;;;;;10397679;28;20029;-77
2022/08/19 12:34:36;;;;;;;8.07;3.37;;;;;;;;;;10404672;28;20025;-77
2022/08/19 12:39:38;;;;;;;10.40;4.07;;;;;;;;;;10384476;28;20164;-76
2022/08/19 12:44:40;;;;;;;5.70;4.18;;;;;;;;;;10401125;28;20525;-77
2022/08/19 12:49:40;;;;;;;8.93;4.55;;;;;;;;;;10386497;28;20081;-78
2022/08/19 12:54:41;;;;;;;5.28;4.00;;;;;;;;;;10399873;28;20167;-77
2022/08/19 12:59:42;;;;;;;7.25;4.15;;;;;;;;;;10403389;28;20025;-78
2022/08/19 13:04:42;;;;;;;6.03;4.20;;;;;;;;;;10400238;28;20025;-79
2022/08/19 13:09:43;;;;;;;7.18;4.40;;;;;;;;;;10400856;28;20029;-78
2022/08/19 13:14:45;;;;;;;9.98;4.00;;;;;;;;;;10402356;28;20021;-77
2022/08/19 13:19:46;;;;;;;6.18;3.92;;;;;;;;;;10394822;28;20029;-77
2022/08/19 13:24:46;;;;;;;13.57;4.20;;;;;;;;;;10400958;28;20100;-76
2022/08/19 13:35:05;;;;;;;6.22;3.88;;;;;;;;;;10398287;28;20041;-76
2022/08/19 13:40:06;;;;;;;7.43;3.67;;;;;;;;;;10398693;28;20554;-75
2022/08/19 13:45:06;;;;;;;6.18;3.75;;;;;;;;;;10403188;28;20040;-76
2022/08/19 13:50:07;;;;;;;8.32;3.70;;;;;;;;;;10401599;28;20073;-77
2022/08/19 13:55:08;;;;;;;6.43;3.92;;;;;;;;;;10396902;28;20653;-77
2022/08/19 14:00:11;;;;;;;7.53;4.47;;;;;;;;;;10400614;28;20029;-76
2022/08/19 14:05:13;;;;;;;13.63;5.80;;;;;;;;;;10397894;28;20031;-76
2022/08/19 14:10:14;;;;;;;7.40;3.85;;;;;;;;;;10399567;28;20079;-76
2022/08/19 14:15:15;;;;;;;6.45;4.00;;;;;;;;;;10397852;28;20029;-76
2022/08/19 14:20:16;;;;;;;5.15;3.97;;;;;;;;;;10397000;28;20025;-78
2022/08/19 14:25:17;;;;;;;9.90;4.13;;;;;;;;;;10398740;28;20025;-79
2022/08/19 14:30:20;;;;;;;9.52;4.40;;;;;;;;;;10398607;28;20030;-76
2022/08/19 14:35:21;;;;;;;12.45;4.82;;;;;;;;;;10397309;28;20113;-76
2022/08/19 14:40:25;;;;;;;8.48;4.15;;;;;;;;;;10396158;28;20037;-79
2022/08/19 14:45:26;;;;;;;5.93;3.92;;;;;;;;;;10395633;28;20032;-77
2022/08/19 14:50:27;;;;;;;6.07;3.85;;;;;;;;;;10397850;28;20037;-72
2022/08/19 14:55:27;;;;;;;9.13;4.43;;;;;;;;;;10400777;28;20029;-77
2022/08/19 15:00:27;;;;;;;14.82;4.68;;;;;;;;;;10399861;28;20171;-74
2022/08/19 15:05:28;;;;;;;8.40;3.95;;;;;;;;;;10394942;28;20038;-76
2022/08/19 15:10:28;;;;;;;8.73;4.47;;;;;;;;;;10392422;28;20522;-72
2022/08/19 15:15:28;;;;;;;6.55;4.20;;;;;;;;;;10393518;28;20503;-73
2022/08/19 15:20:28;;;;;;;10.70;4.53;;;;;;;;;;10399114;28;20028;-76
2022/08/19 15:25:29;;;;;;;10.90;4.27;;;;;;;;;;10446784;23;20053;-75
2022/08/19 15:30:30;;;;;;;8.82;3.67;;;;;;;;;;10410466;28;20292;-78
2022/08/19 15:35:30;;;;;;;6.93;3.63;;;;;;;;;;10409637;28;20024;-77
2022/08/19 15:40:30;;;;;;;7.27;4.13;;;;;;;;;;10416608;28;20499;-75
2022/08/19 15:45:33;;;;;;;6.68;4.32;;;;;;;;;;10403979;28;20535;-75
2022/08/19 15:50:34;;;;;;;9.70;3.90;;;;;;;;;;10408834;28;20036;-77
2022/08/19 15:55:36;;;;;;;5.45;3.55;;;;;;;;;;10399256;28;20546;-78
2022/08/19 16:11:21;;;;;;;5.25;3.65;;;;;;;;;;10415901;28;20033;-77
2022/08/19 16:16:22;;;;;;;5.47;3.60;;;;;;;;;;10402082;28;20449;-77
2022/08/19 16:21:24;;;;;;;6.28;3.47;;;;;;;;;;10401477;28;20064;-77
2022/08/19 16:26:29;;;;;;;10.07;3.70;;;;;;;;;;10404561;28;20132;-72
2022/08/19 16:31:29;;;;;;;10.02;3.92;;;;;;;;;;10400663;28;20025;-76
2022/08/19 16:36:31;;;;;;;6.85;3.70;;;;;;;;;;10398123;28;20028;-76
2022/08/19 16:41:31;;;;;;;4.68;4.05;;;;;;;;;;10401508;28;20396;-78
2022/08/19 16:46:31;;;;;;;9.18;3.78;;;;;;;;;;10418761;28;20018;-77
2022/08/19 16:51:32;;;;;;;12.98;4.32;;;;;;;;;;10418194;28;20021;-76
2022/08/19 16:56:33;;;;;;;7.53;4.07;;;;;;;;;;10420183;28;20134;-77
2022/08/19 17:01:33;;;;;;;7.10;3.95;;;;;;;;;;10400047;28;20032;-75
2022/08/19 17:06:35;;;;;;;5.63;3.70;;;;;;;;;;10420687;28;20094;-79
2022/08/19 17:11:36;;;;;;;9.00;3.83;;;;;;;;;;10405149;28;20443;-76
2022/08/19 17:16:36;;;;;;;6.50;4.47;;;;;;;;;;10399186;28;20017;-76
2022/08/19 17:21:38;;;;;;;6.88;4.55;;;;;;;;;;10401977;28;20049;-76
2022/08/19 17:26:38;;;;;;;8.00;5.18;;;;;;;;;;10398342;28;20029;-77
2022/08/19 17:31:38;;;;;;;8.32;3.97;;;;;;;;;;10401860;28;20418;-76
2022/08/19 17:36:39;;;;;;;10.57;4.63;;;;;;;;;;10419616;28;20028;-77
2022/08/19 17:41:39;;;;;;;7.85;4.85;;;;;;;;;;10400299;28;20031;-76
2022/08/19 17:46:39;;;;;;;8.68;4.90;;;;;;;;;;10401651;28;20025;-77
2022/08/19 17:51:41;;;;;;;8.88;5.93;;;;;;;;;;10417799;28;20029;-76
2022/08/19 17:56:42;;;;;;;15.82;6.05;;;;;;;;;;10395150;28;20367;-75
2022/08/19 18:01:43;;;;;;;9.82;5.32;;;;;;;;;;10385307;28;20025;-75
2022/08/19 18:06:44;;;;;;;14.20;7.78;;;;;;;;;;10397647;28;20145;-77
2022/08/19 18:11:44;;;;;;;16.10;5.93;;;;;;;;;;10389568;28;20017;-77
2022/08/19 18:16:45;;;;;;;8.65;5.60;;;;;;;;;;10399501;28;20479;-77
2022/08/19 18:21:45;;;;;;;14.07;5.72;;;;;;;;;;10415615;28;20045;-77
2022/08/19 18:26:46;;;;;;;12.77;6.40;;;;;;;;;;10399704;28;20024;-75
2022/08/19 18:31:47;;;;;;;17.35;7.60;;;;;;;;;;10401641;28;20451;-77
2022/08/19 18:36:47;;;;;;;11.57;6.68;;;;;;;;;;10398711;28;20025;-77
2022/08/19 18:52:26;;;;;;;9.52;5.88;;;;;;;;;;10416702;28;20021;-71
2022/08/19 18:57:26;;;;;;;9.38;5.80;;;;;;;;;;10410266;28;20017;-70
2022/08/19 19:02:26;;;;;;;8.75;5.75;;;;;;;;;;10409460;28;20112;-71
2022/08/19 19:07:28;;;;;;;13.68;5.90;;;;;;;;;;10408122;28;20374;-72
2022/08/19 19:12:28;;;;;;;10.55;5.82;;;;;;;;;;10410436;28;20017;-75
2022/08/19 19:17:28;;;;;;;9.40;5.30;;;;;;;;;;10428582;28;20021;-75
2022/08/19 19:22:29;;;;;;;14.73;5.70;;;;;;;;;;10409650;28;20053;-76
2022/08/19 19:27:29;;;;;;;11.30;5.77;;;;;;;;;;10409316;28;20017;-76
2022/08/19 19:32:34;;;;;;;7.97;5.72;;;;;;;;;;10408005;28;20017;-71
2022/08/19 19:37:35;;;;;;;8.52;5.18;;;;;;;;;;10421596;28;20063;-72
2022/08/19 19:42:35;;;;;;;12.07;5.33;;;;;;;;;;10408875;28;20107;-76
2022/08/19 19:47:35;;;;;;;8.33;5.50;;;;;;;;;;10409243;28;20301;-76
2022/08/19 19:52:36;;;;;;;23.33;13.17;;;;;;;;;;10409852;28;20087;-75
2022/08/19 19:57:38;;;;;;;8.90;4.97;;;;;;;;;;10409324;28;20079;-71
2022/08/19 20:02:38;;;;;;;10.70;5.25;;;;;;;;;;10408446;28;20491;-71
2022/08/19 20:13:00;;;;;;;10.88;5.30;;;;;;;;;;10409399;28;20398;-75
2022/08/19 20:18:03;;;;;;;9.05;5.60;;;;;;;;;;10416351;28;20060;-71
2022/08/19 20:23:04;;;;;;;8.40;4.90;;;;;;;;;;10401373;28;20144;-71
2022/08/19 20:28:04;;;;;;;7.82;4.93;;;;;;;;;;10406457;28;20059;-73
2022/08/19 20:33:07;;;;;;;9.70;5.35;;;;;;;;;;10420040;28;20029;-71
2022/08/19 20:38:08;;;;;;;11.88;5.72;;;;;;;;;;10400623;28;20021;-75
2022/08/19 20:43:09;;;;;;;9.55;5.85;;;;;;;;;;10423341;28;20027;-72
2022/08/19 20:48:11;;;;;;;7.90;5.32;;;;;;;;;;10386784;28;20139;-79
2022/08/19 20:53:12;;;;;;;7.80;5.72;;;;;;;;;;10420772;28;20034;-74
2022/08/19 20:58:12;;;;;;;8.57;6.07;;;;;;;;;;10422584;28;20442;-74
2022/08/19 21:03:17;;;;;;;10.50;5.43;;;;;;;;;;10404028;28;20030;-79
2022/08/19 21:08:18;;;;;;;7.90;5.85;;;;;;;;;;10386160;28;20036;-78
2022/08/19 21:13:19;;;;;;;10.68;6.82;;;;;;;;;;10420359;28;20032;-75
2022/08/19 21:18:20;;;;;;;9.27;6.18;;;;;;;;;;10402168;28;20028;-72
2022/08/19 21:23:22;;;;;;;12.75;5.72;;;;;;;;;;10403184;28;20549;-72
2022/08/19 21:28:25;;;;;;;9.15;5.65;;;;;;;;;;10404075;28;20090;-76
2022/08/19 21:33:26;;;;;;;11.52;5.22;;;;;;;;;;10400453;28;20124;-75
2022/08/19 21:38:26;;;;;;;9.82;6.28;;;;;;;;;;10385772;28;20033;-71
2022/08/19 21:43:27;;;;;;;9.88;5.68;;;;;;;;;;10405086;28;20102;-72
2022/08/19 21:48:27;;;;;;;11.85;5.85;;;;;;;;;;10403710;28;20451;-70
2022/08/19 21:53:27;;;;;;;6.72;5.05;;;;;;;;;;10418190;28;20017;-71
2022/08/19 21:58:29;;;;;;;11.63;5.72;;;;;;;;;;10400603;28;20077;-71
2022/08/19 22:03:29;;;;;;;7.57;5.30;;;;;;;;;;10400875;28;20136;-77
2022/08/19 22:08:30;;;;;;;9.45;5.47;;;;;;;;;;10402332;28;20028;-75
2022/08/19 22:13:37;;;;;;;9.45;5.57;;;;;;;;;;10400830;28;20410;-76
2022/08/19 22:18:37;;;;;;;12.07;5.35;;;;;;;;;;10399857;28;20029;-77
2022/08/19 22:23:37;;;;;;;10.18;5.53;;;;;;;;;;10404548;28;20045;-76
2022/08/19 22:28:38;;;;;;;12.95;5.72;;;;;;;;;;10398546;28;20041;-76
2022/08/19 22:33:38;;;;;;;8.53;5.20;;;;;;;;;;10401232;28;20022;-71
2022/08/19 22:38:38;;;;;;;7.23;5.33;;;;;;;;;;10397772;28;20434;-75
2022/08/19 22:43:39;;;;;;;7.63;5.85;;;;;;;;;;10396356;28;20518;-78
2022/08/19 22:48:39;;;;;;;8.27;5.30;;;;;;;;;;10395542;28;20032;-75
2022/08/19 22:53:41;;;;;;;8.95;5.75;;;;;;;;;;10395947;28;20021;-71
2022/08/19 22:58:41;;;;;;;8.43;5.32;;;;;;;;;;10393978;28;20025;-75
2022/08/19 23:03:41;;;;;;;9.10;5.20;;;;;;;;;;10401514;28;20100;-75
2022/08/19 23:08:42;;;;;;;10.23;5.60;;;;;;;;;;10398706;28;20135;-72
2022/08/19 23:13:42;;;;;;;7.28;5.30;;;;;;;;;;10398090;28;20388;-76
2022/08/19 23:18:44;;;;;;;8.10;5.25;;;;;;;;;;10415211;28;20054;-71
2022/08/19 23:23:44;;;;;;;9.32;4.82;;;;;;;;;;10398678;28;20046;-76
2022/08/19 23:34:04;;;;;;;8.07;5.45;;;;;;;;;;10418730;28;20065;-74
2022/08/19 23:39:04;;;;;;;8.30;5.15;;;;;;;;;;10391767;28;20025;-79
2022/08/19 23:44:05;;;;;;;10.57;5.13;;;;;;;;;;10403401;28;20088;-73
2022/08/19 23:49:05;;;;;;;8.48;5.10;;;;;;;;;;10410390;28;20021;-72
2022/08/19 23:54:05;;;;;;;8.40;5.80;;;;;;;;;;10406200;28;20064;-74
2022/08/19 23:59:06;;;;;;;7.85;5.93;;;;;;;;;;10405674;28;20029;-73
